Time;durP1;ratioP1;P1;durP2;ratioP2;P2;SDS_P1;SDS_P2;PMS_P1;PMS_P2;Temp;Humidity;BMP_temperature;BMP_pressure;BME280_temperature;BME280_humidity;BME280_pressure;Samples;Min_cycle;Max_cycle;Signal;HPM_P1;HPM_P2
2021/09/25 00:01:02;;;;;;;4.72;3.00;;;;;;;7.04;87.39;91044.69;5039904;28;20379;-89
2021/09/25 00:03:28;;;;;;;3.83;2.65;;;;;;;7.14;86.95;91036.63;5039793;28;20029;-88
2021/09/25 00:05:53;;;;;;;4.13;2.28;;;;;;;7.03;85.13;91037.19;5039511;28;20346;-88
2021/09/25 00:08:19;;;;;;;4.10;2.50;;;;;;;7.04;84.46;91031.72;5056002;28;20489;-89
2021/09/25 00:10:44;;;;;;;3.47;1.95;;;;;;;6.96;82.75;91029.88;5039721;28;20020;-88
2021/09/25 00:13:09;;;;;;;3.50;2.45;;;;;;;7.00;84.02;91033.41;5072849;28;20026;-89
2021/09/25 00:15:35;;;;;;;4.07;2.60;;;;;;;6.85;85.44;91036.41;5036046;28;20042;-90
2021/09/25 00:18:01;;;;;;;5.32;3.00;;;;;;;6.85;86.48;91029.38;5019924;28;20044;-89
2021/09/25 00:20:27;;;;;;;3.92;2.85;;;;;;;6.95;87.20;91028.34;5019747;28;20035;-89
2021/09/25 00:22:52;;;;;;;3.55;2.55;;;;;;;6.91;87.22;91027.44;5055765;28;20016;-89
2021/09/25 00:25:18;;;;;;;5.82;2.70;;;;;;;6.86;87.47;91035.34;5055438;28;20046;-88
2021/09/25 00:27:43;;;;;;;3.83;2.75;;;;;;;6.80;86.70;91026.19;5039492;28;20158;-89
2021/09/25 00:30:09;;;;;;;5.35;2.50;;;;;;;6.78;87.39;91020.53;5039344;28;20060;-87
2021/09/25 00:32:35;;;;;;;3.38;2.70;;;;;;;6.93;87.89;91022.72;5039959;28;20115;-88
2021/09/25 00:35:01;;;;;;;3.80;2.55;;;;;;;7.02;87.43;91017.53;5039363;28;20077;-88
2021/09/25 00:37:26;;;;;;;4.03;2.58;;;;;;;7.10;86.19;91017.56;5039441;28;20020;-88
2021/09/25 00:39:51;;;;;;;5.90;2.60;;;;;;;6.94;86.12;91011.28;5061939;28;20472;-88
2021/09/25 00:42:17;;;;;;;4.60;2.35;;;;;;;6.69;86.71;91021.28;5042310;28;20021;-88
2021/09/25 00:44:42;;;;;;;4.63;2.97;;;;;;;6.77;86.20;91019.00;5056132;28;20021;-88
2021/09/25 00:47:08;;;;;;;3.40;2.38;;;;;;;6.69;84.48;91023.88;5056315;28;20375;-88
2021/09/25 00:49:33;;;;;;;3.70;2.53;;;;;;;6.62;85.21;91015.78;5056366;28;20027;-90
2021/09/25 00:51:59;;;;;;;6.97;2.58;;;;;;;6.70;84.66;91016.88;5039659;28;20086;-88
2021/09/25 00:54:24;;;;;;;4.45;2.72;;;;;;;6.63;85.68;91014.72;5024723;28;20078;-88
2021/09/25 00:56:50;;;;;;;3.85;2.90;;;;;;;6.54;86.76;91018.38;5019611;28;20021;-89
2021/09/25 00:59:15;;;;;;;4.18;2.92;;;;;;;6.53;86.83;91012.41;5006187;28;20394;-88
2021/09/25 01:01:41;;;;;;;4.40;2.55;;;;;;;6.55;86.14;91022.47;5055663;28;20028;-88
2021/09/25 01:04:07;;;;;;;4.55;3.10;;;;;;;6.57;87.36;91007.38;5039093;28;20037;-90
2021/09/25 01:06:32;;;;;;;5.13;2.97;;;;;;;6.75;87.07;91008.97;5036208;28;20450;-88
2021/09/25 01:08:58;;;;;;;4.28;2.75;;;;;;;6.79;87.53;91003.94;5011805;28;20028;-91
2021/09/25 01:11:23;;;;;;;4.80;3.10;;;;;;;6.86;88.02;91001.69;5042633;28;20032;-90
2021/09/25 01:13:49;;;;;;;6.68;3.10;;;;;;;6.84;90.12;90998.63;5061586;28;20032;-88
2021/09/25 01:16:14;;;;;;;6.18;3.70;;;;;;;6.78;90.42;90997.97;5069227;28;20032;-88
2021/09/25 01:18:40;;;;;;;4.25;2.97;;;;;;;6.92;89.83;90997.84;5052011;28;20029;-88
2021/09/25 01:21:06;;;;;;;4.38;3.10;;;;;;;6.93;88.74;90999.41;5038660;28;20036;-88
2021/09/25 01:23:32;;;;;;;4.78;3.20;;;;;;;6.96;89.75;90993.59;5055043;28;20118;-88
2021/09/25 01:25:59;;;;;;;5.00;2.92;;;;;;;6.92;88.72;91000.44;5055169;28;20378;-88
2021/09/25 01:28:24;;;;;;;3.70;2.60;;;;;;;6.86;85.69;90991.31;5055531;28;20440;-88
2021/09/25 01:30:50;;;;;;;4.38;3.05;;;;;;;6.60;86.21;91006.78;5055022;28;20020;-88
2021/09/25 01:33:15;;;;;;;5.55;2.70;;;;;;;6.53;87.03;91001.28;5038638;28;20020;-88
2021/09/25 01:35:40;;;;;;;5.40;3.13;;;;;;;6.63;88.04;90999.19;5071499;28;20024;-88
2021/09/25 01:38:06;;;;;;;5.35;2.97;;;;;;;6.70;87.72;91004.69;5055037;28;20020;-87
2021/09/25 01:40:31;;;;;;;3.53;2.97;;;;;;;6.85;87.54;90992.34;5054981;28;20024;-88
2021/09/25 01:42:57;;;;;;;7.80;3.47;;;;;;;6.86;90.03;90997.25;5071712;28;20039;-87
2021/09/25 01:45:22;;;;;;;4.95;3.40;;;;;;;6.91;90.32;90991.16;5034719;28;20127;-88
2021/09/25 01:47:47;;;;;;;6.60;3.38;;;;;;;6.86;90.21;90978.38;5001884;28;20664;-88
2021/09/25 01:50:14;;;;;;;6.25;3.47;;;;;;;6.89;90.28;90995.88;5001751;28;20021;-89
2021/09/25 01:52:39;;;;;;;4.43;3.25;;;;;;;6.90;90.24;90982.63;5035095;28;20115;-89
2021/09/25 01:55:05;;;;;;;7.00;3.47;;;;;;;6.94;90.14;90991.31;5018617;28;20513;-89
2021/09/25 01:57:30;;;;;;;5.30;3.22;;;;;;;6.90;90.05;90987.81;5001971;28;20025;-88
2021/09/25 01:59:56;;;;;;;5.85;3.38;;;;;;;6.94;90.29;90986.13;5035759;28;20033;-88
2021/09/25 02:02:21;;;;;;;5.20;3.50;;;;;;;6.97;90.34;90994.38;5054668;28;20051;-88
2021/09/25 02:04:47;;;;;;;4.80;3.47;;;;;;;7.00;89.75;90989.34;5038245;28;20025;-89
2021/09/25 02:07:14;;;;;;;6.13;3.85;;;;;;;7.19;89.66;90997.56;5054998;28;20477;-91
2021/09/25 02:09:39;;;;;;;6.35;3.38;;;;;;;7.07;89.66;90989.66;5058118;28;20040;-88
2021/09/25 02:12:05;;;;;;;6.30;3.58;;;;;;;7.05;89.95;90991.03;5038909;28;20032;-87
2021/09/25 02:14:31;;;;;;;6.78;3.85;;;;;;;7.12;90.79;90986.91;5038212;28;20489;-88
2021/09/25 02:16:56;;;;;;;6.85;3.67;;;;;;;7.17;91.22;90994.53;5038653;28;20025;-88
2021/09/25 02:19:22;;;;;;;8.70;3.90;;;;;;;7.05;91.70;90985.84;5038490;28;20051;-88
2021/09/25 02:21:48;;;;;;;5.28;3.83;;;;;;;7.07;91.95;90992.25;5038470;28;20397;-88
2021/09/25 02:24:13;;;;;;;5.65;3.90;;;;;;;7.07;92.21;90994.84;5038244;28;20501;-88
2021/09/25 02:26:39;;;;;;;5.72;4.18;;;;;;;7.23;92.03;91000.31;5038601;28;20024;-87
2021/09/25 02:29:04;;;;;;;5.88;3.72;;;;;;;7.17;92.00;90997.13;5038289;28;20032;-88
2021/09/25 02:31:30;;;;;;;4.70;3.55;;;;;;;7.14;92.45;91000.34;5038326;28;20021;-88
2021/09/25 02:33:55;;;;;;;6.93;3.80;;;;;;;7.18;92.52;90998.66;5037953;28;20039;-88
2021/09/25 02:36:21;;;;;;;7.25;3.97;;;;;;;7.24;91.81;90986.28;5038561;28;20393;-88
2021/09/25 02:38:46;;;;;;;5.07;3.80;;;;;;;7.26;92.10;90993.78;5055124;28;20029;-88
2021/09/25 02:41:11;;;;;;;6.72;4.07;;;;;;;7.25;92.56;90979.31;5055294;28;20028;-88
2021/09/25 02:43:37;;;;;;;6.75;4.00;;;;;;;7.29;92.50;90993.16;5038009;28;20016;-87
2021/09/25 02:46:02;;;;;;;5.85;3.80;;;;;;;7.25;92.59;90979.31;5021842;28;20016;-88
2021/09/25 02:48:28;;;;;;;6.18;4.00;;;;;;;7.51;91.28;90985.22;5038458;28;20028;-88
2021/09/25 02:50:53;;;;;;;7.10;4.38;;;;;;;7.44;91.54;90982.31;5038535;28;20028;-88
2021/09/25 02:53:18;;;;;;;6.35;3.97;;;;;;;7.35;91.72;90978.97;5047860;28;20089;-88
2021/09/25 02:55:44;;;;;;;5.68;4.00;;;;;;;7.34;91.56;90967.09;5075396;28;20037;-88
2021/09/25 02:58:09;;;;;;;7.45;3.67;;;;;;;7.40;90.98;90976.22;5071559;28;20028;-88
2021/09/25 03:00:35;;;;;;;5.00;3.85;;;;;;;7.31;89.88;90978.06;5055279;28;20035;-88
2021/09/25 03:03:02;;;;;;;4.85;3.40;;;;;;;7.17;89.59;90970.44;5049557;23;20053;-90
2021/09/25 03:05:28;;;;;;;5.80;4.10;;;;;;;7.15;90.85;90975.19;5017084;28;20090;-90
2021/09/25 03:07:53;;;;;;;12.25;4.60;;;;;;;7.27;91.46;90972.72;5033325;28;20033;-89
2021/09/25 03:10:18;;;;;;;6.38;4.03;;;;;;;7.21;90.78;90966.19;5017088;28;20026;-89
2021/09/25 03:12:44;;;;;;;6.05;4.25;;;;;;;7.29;91.78;90968.00;5033439;28;20378;-90
2021/09/25 03:15:10;;;;;;;6.38;4.15;;;;;;;7.35;92.02;90973.78;5016948;28;20390;-90
2021/09/25 03:17:35;;;;;;;5.60;4.20;;;;;;;7.34;92.32;90973.03;5017203;28;20087;-90
2021/09/25 03:20:00;;;;;;;9.02;4.80;;;;;;;7.37;93.39;90972.41;5000693;28;20545;-90
2021/09/25 03:22:26;;;;;;;6.38;4.50;;;;;;;7.43;93.41;90978.22;5016757;28;20045;-90
2021/09/25 03:24:51;;;;;;;7.72;4.90;;;;;;;7.55;93.01;90972.41;5016343;28;20025;-87
2021/09/25 03:27:17;;;;;;;6.57;4.75;;;;;;;7.55;93.45;90977.59;5033435;28;20024;-89
2021/09/25 03:29:42;;;;;;;7.15;4.90;;;;;;;7.61;93.37;90971.94;5033239;28;20022;-89
2021/09/25 03:32:08;;;;;;;9.95;5.45;;;;;;;7.62;93.50;90968.25;5016488;28;20025;-88
2021/09/25 03:34:34;;;;;;;9.13;5.25;;;;;;;7.68;94.13;90970.72;5016227;28;20482;-90
2021/09/25 03:36:59;;;;;;;8.15;5.60;;;;;;;7.69;94.14;90967.03;5016674;28;20033;-89
2021/09/25 03:39:24;;;;;;;7.22;5.10;;;;;;;7.77;93.72;90968.84;5016551;28;20518;-89
2021/09/25 03:41:50;;;;;;;7.03;5.05;;;;;;;7.71;93.40;90970.84;4999961;28;20029;-89
2021/09/25 03:44:15;;;;;;;9.98;5.55;;;;;;;7.70;93.54;90971.91;5028531;28;20072;-89
2021/09/25 03:46:41;;;;;;;8.63;5.43;;;;;;;7.69;93.57;90974.81;4996480;28;20028;-88
2021/09/25 03:49:06;;;;;;;8.38;5.68;;;;;;;7.75;93.38;90971.00;5012992;28;20037;-89
2021/09/25 03:51:32;;;;;;;10.20;5.80;;;;;;;7.78;94.06;90967.78;4996788;28;20029;-88
2021/09/25 03:53:57;;;;;;;8.35;5.45;;;;;;;7.90;93.33;90973.84;4980933;28;20430;-88
2021/09/25 03:56:23;;;;;;;7.78;5.32;;;;;;;7.82;93.20;90974.66;5029303;28;20030;-88
2021/09/25 03:58:49;;;;;;;10.90;5.57;;;;;;;7.79;93.34;90966.72;4996792;28;20029;-88
2021/09/25 04:01:15;;;;;;;8.10;5.57;;;;;;;7.79;93.82;90969.31;4996759;28;20038;-89
2021/09/25 04:03:40;;;;;;;8.55;5.63;;;;;;;7.80;93.76;90963.81;4996300;28;20034;-88
2021/09/25 04:06:06;;;;;;;8.95;5.20;;;;;;;7.71;93.65;90960.47;4980288;28;20033;-88
2021/09/25 04:08:31;;;;;;;8.05;5.55;;;;;;;7.71;93.35;90954.53;5029570;28;20037;-89
2021/09/25 04:10:57;;;;;;;8.93;5.68;;;;;;;7.79;93.19;90961.53;5012658;28;20415;-88
2021/09/25 04:13:22;;;;;;;7.90;5.15;;;;;;;7.82;92.83;90960.91;4995842;28;20029;-89
2021/09/25 04:15:47;;;;;;;7.85;4.82;;;;;;;7.85;92.39;90960.31;4996119;28;20026;-88
2021/09/25 04:18:13;;;;;;;10.13;5.35;;;;;;;7.74;92.69;90969.47;4980031;28;20029;-88
2021/09/25 04:20:38;;;;;;;9.00;5.43;;;;;;;7.57;93.07;90965.84;4996289;28;20502;-88
2021/09/25 04:23:04;;;;;;;9.13;5.40;;;;;;;7.61;92.85;90971.94;5007731;28;20555;-88
2021/09/25 04:25:30;;;;;;;8.48;5.13;;;;;;;7.64;93.44;90963.53;5015548;28;20025;-89
2021/09/25 04:28:00;;;;;;;9.27;5.53;;;;;;;7.55;93.73;90962.03;5016151;28;20026;-88
2021/09/25 04:30:25;;;;;;;8.02;5.65;;;;;;;7.58;93.85;90956.22;4979982;28;20025;-88
2021/09/25 04:32:51;;;;;;;12.93;6.38;;;;;;;7.53;93.88;90948.63;5012188;28;20411;-88
2021/09/25 04:35:16;;;;;;;11.63;6.28;;;;;;;7.56;94.70;90956.56;4979437;28;20025;-88
2021/09/25 04:37:41;;;;;;;11.00;5.85;;;;;;;7.80;94.10;90955.25;4980705;28;20022;-88
2021/09/25 04:40:07;;;;;;;8.85;5.72;;;;;;;7.70;93.71;90953.75;4983624;28;20025;-88
2021/09/25 04:42:33;;;;;;;9.60;6.18;;;;;;;7.69;94.04;90956.66;5000033;28;20037;-89
2021/09/25 04:44:58;;;;;;;9.23;6.05;;;;;;;7.60;94.36;90960.03;5015805;28;20435;-89
2021/09/25 04:47:24;;;;;;;11.52;6.53;;;;;;;7.62;94.57;90960.47;5033931;28;20024;-88
2021/09/25 04:49:49;;;;;;;10.38;6.60;;;;;;;7.64;94.82;90958.34;5031697;28;20025;-88
2021/09/25 04:52:15;;;;;;;11.73;6.88;;;;;;;7.81;94.83;90947.19;5031879;28;20029;-88
2021/09/25 04:54:40;;;;;;;8.05;5.82;;;;;;;7.88;93.99;90952.66;5031202;28;20033;-88
2021/09/25 04:57:05;;;;;;;13.68;6.40;;;;;;;8.12;92.54;90944.31;5032104;28;20026;-88
2021/09/25 04:59:31;;;;;;;11.93;6.10;;;;;;;7.96;93.17;90945.91;5031782;28;20037;-88
2021/09/25 05:01:56;;;;;;;10.23;6.57;;;;;;;8.00;92.89;90946.81;5014857;28;20032;-88
2021/09/25 05:04:22;;;;;;;12.63;5.63;;;;;;;7.94;92.76;90950.63;5014718;28;20079;-88
2021/09/25 05:06:47;;;;;;;8.52;5.90;;;;;;;7.93;93.12;90949.13;5031383;28;20022;-88
2021/09/25 05:09:12;;;;;;;9.88;6.35;;;;;;;7.92;93.23;90947.63;5031194;28;20040;-88
2021/09/25 05:11:38;;;;;;;9.43;6.03;;;;;;;8.00;93.59;90943.47;5048325;28;20021;-88
2021/09/25 05:14:03;;;;;;;11.43;6.93;;;;;;;7.92;94.47;90952.81;4998181;28;20036;-88
2021/09/25 05:16:29;;;;;;;12.43;7.32;;;;;;;7.90;94.82;90953.09;4998368;28;20033;-88
2021/09/25 05:18:54;;;;;;;13.05;7.38;;;;;;;7.88;95.58;90950.06;5033721;28;20021;-89
2021/09/25 05:21:21;;;;;;;10.95;7.40;;;;;;;7.89;95.66;90948.97;4998945;28;20048;-89
2021/09/25 05:23:47;;;;;;;13.77;7.38;;;;;;;7.92;95.68;90952.81;5001956;28;20056;-88
2021/09/25 05:26:12;;;;;;;11.73;7.32;;;;;;;7.92;95.54;90950.22;5033787;28;20025;-89
2021/09/25 05:28:38;;;;;;;12.52;8.43;;;;;;;7.88;95.23;90959.69;4999111;28;20032;-89
2021/09/25 05:31:03;;;;;;;10.82;7.05;;;;;;;7.89;95.34;90963.78;5016073;28;20399;-88
2021/09/25 05:33:29;;;;;;;13.15;7.80;;;;;;;8.09;96.01;90960.53;5030928;28;20029;-88
2021/09/25 05:35:54;;;;;;;14.65;7.93;;;;;;;8.10;96.29;90953.50;4997752;28;20442;-88
2021/09/25 05:38:19;;;;;;;12.05;7.25;;;;;;;8.12;95.61;90959.13;5015124;28;20028;-88
2021/09/25 05:40:45;;;;;;;12.65;8.38;;;;;;;8.08;95.86;90959.00;4998464;28;20017;-89
2021/09/25 05:43:10;;;;;;;12.88;8.30;;;;;;;8.19;96.26;90963.84;5031117;28;20022;-88
2021/09/25 05:45:36;;;;;;;13.77;7.93;;;;;;;8.15;96.00;90955.91;5031175;28;20079;-89
2021/09/25 05:48:01;;;;;;;12.60;8.32;;;;;;;8.19;95.83;90956.06;5031774;28;20010;-91
2021/09/25 05:50:27;;;;;;;19.25;9.82;;;;;;;8.30;96.79;90959.81;5057125;28;20025;-88
2021/09/25 05:52:52;;;;;;;14.27;8.75;;;;;;;8.36;96.53;90963.78;5049357;28;20060;-88
2021/09/25 05:55:20;;;;;;;13.82;8.90;;;;;;;8.38;96.18;90959.81;5031582;28;20037;-88
2021/09/25 05:57:45;;;;;;;16.30;7.88;;;;;;;8.42;94.07;90952.16;5031071;28;20018;-88
2021/09/25 06:00:11;;;;;;;13.75;8.65;;;;;;;8.53;94.88;90962.97;5047791;28;20028;-88
2021/09/25 06:02:38;;;;;;;15.05;9.45;;;;;;;8.69;94.81;90971.72;5043154;28;20017;-89
2021/09/25 06:05:06;;;;;;;11.73;7.78;;;;;;;8.66;94.49;90969.78;5030638;28;20021;-88
2021/09/25 06:07:31;;;;;;;12.10;8.10;;;;;;;8.71;93.89;90974.03;5010980;28;20025;-88
2021/09/25 06:09:57;;;;;;;10.57;7.38;;;;;;;8.75;94.26;90969.72;5020931;28;20037;-89
2021/09/25 06:12:22;;;;;;;10.35;7.20;;;;;;;8.84;93.82;90968.59;5027149;28;20072;-88
2021/09/25 06:14:50;;;;;;;11.32;7.75;;;;;;;8.74;94.58;90965.59;4981175;28;20490;-87
2021/09/25 06:17:16;;;;;;;12.90;8.43;;;;;;;8.85;94.89;90964.91;5013910;28;20025;-88
2021/09/25 06:19:42;;;;;;;12.40;7.82;;;;;;;8.93;94.31;90965.19;5004362;28;20022;-88
2021/09/25 06:22:07;;;;;;;12.98;8.40;;;;;;;9.02;94.50;90963.28;5000576;28;20402;-88
2021/09/25 06:24:33;;;;;;;11.50;7.97;;;;;;;9.07;94.38;90968.28;5027757;28;20029;-88
2021/09/25 06:26:58;;;;;;;14.80;8.13;;;;;;;9.07;94.16;90966.44;5030967;28;20498;-88
2021/09/25 06:29:24;;;;;;;12.00;8.35;;;;;;;9.06;94.42;90964.94;5013940;28;20056;-88
2021/09/25 06:31:49;;;;;;;11.82;7.55;;;;;;;9.14;94.93;90967.78;5014622;28;20025;-88
2021/09/25 06:34:14;;;;;;;12.30;7.95;;;;;;;9.34;94.11;90962.59;5013380;28;20149;-88
2021/09/25 06:36:41;;;;;;;13.90;8.35;;;;;;;9.42;94.41;90960.22;5017300;28;20056;-87
2021/09/25 06:39:07;;;;;;;13.73;8.23;;;;;;;9.53;93.77;90956.16;5032091;28;20057;-88
2021/09/25 06:41:32;;;;;;;12.07;7.78;;;;;;;9.58;94.02;90963.78;5010856;28;20060;-88
2021/09/25 06:43:57;;;;;;;12.35;8.20;;;;;;;9.67;94.08;90972.25;5012383;28;20052;-88
2021/09/25 06:46:23;;;;;;;11.77;7.78;;;;;;;9.92;94.04;90973.06;5017040;28;20488;-88
2021/09/25 06:48:49;;;;;;;14.98;8.40;;;;;;;9.93;93.73;90964.19;5033766;28;20037;-88
2021/09/25 06:51:16;;;;;;;13.95;8.85;;;;;;;9.98;93.86;90977.00;5015565;28;20018;-88
2021/09/25 06:53:42;;;;;;;14.20;8.27;;;;;;;10.02;94.26;90970.06;5016685;28;20478;-88
2021/09/25 06:56:07;;;;;;;11.05;7.97;;;;;;;10.07;93.85;90966.50;5017396;28;20402;-87
2021/09/25 06:58:33;;;;;;;11.98;8.10;;;;;;;10.10;93.90;90980.72;5019145;28;20483;-87
2021/09/25 07:00:58;;;;;;;12.85;8.30;;;;;;;10.17;94.12;90979.09;5033237;28;20033;-88
2021/09/25 07:03:24;;;;;;;13.30;9.20;;;;;;;10.27;94.03;90988.38;5016718;28;20104;-87
2021/09/25 07:05:49;;;;;;;14.93;8.82;;;;;;;10.53;94.45;90975.81;5033199;28;20029;-87
2021/09/25 07:08:15;;;;;;;14.10;9.13;;;;;;;10.58;94.37;90976.69;5017604;28;20025;-89
2021/09/25 07:10:40;;;;;;;12.95;8.63;;;;;;;10.61;93.97;90978.63;5017132;28;20483;-89
2021/09/25 07:13:05;;;;;;;12.95;8.40;;;;;;;10.65;93.46;90977.66;5017403;28;20025;-88
2021/09/25 07:15:31;;;;;;;13.25;8.05;;;;;;;10.80;94.27;90973.63;4999938;28;20556;-88
2021/09/25 07:17:57;;;;;;;12.00;8.05;;;;;;;10.89;94.30;90982.09;5016332;28;20036;-89
2021/09/25 07:20:22;;;;;;;12.82;8.20;;;;;;;11.04;94.05;90978.06;5021919;28;20109;-88
2021/09/25 07:22:51;;;;;;;13.60;8.05;;;;;;;11.19;92.66;90963.56;4992599;28;20109;-89
2021/09/25 07:25:18;;;;;;;11.35;7.65;;;;;;;11.30;92.73;90969.84;5032615;28;20021;-89
2021/09/25 07:27:43;;;;;;;14.60;8.30;;;;;;;11.51;92.97;90974.91;5016617;28;20058;-88
2021/09/25 07:30:09;;;;;;;12.77;8.27;;;;;;;11.61;93.66;90974.44;5033163;28;20032;-89
2021/09/25 07:32:34;;;;;;;9.75;7.10;;;;;;;11.78;91.88;90977.84;5017319;28;20025;-88
2021/09/25 07:35:00;;;;;;;10.00;6.80;;;;;;;11.98;92.23;90983.97;5016906;28;20025;-88
2021/09/25 07:37:25;;;;;;;10.88;7.63;;;;;;;12.08;91.01;90976.41;5002239;28;20021;-88
2021/09/25 07:39:52;;;;;;;10.40;7.15;;;;;;;12.33;88.13;90976.28;5016744;28;20025;-88
2021/09/25 07:42:20;;;;;;;9.02;6.38;;;;;;;12.39;87.40;90975.69;5033995;28;20091;-87
2021/09/25 07:44:46;;;;;;;11.43;6.50;;;;;;;12.54;88.18;90978.63;5022109;28;20029;-88
2021/09/25 07:47:11;;;;;;;10.63;6.32;;;;;;;12.62;87.27;90983.72;4996351;28;20024;-88
2021/09/25 07:49:38;;;;;;;9.38;6.65;;;;;;;12.76;89.68;90978.06;4998373;28;20026;-87
2021/09/25 07:52:04;;;;;;;10.35;6.68;;;;;;;12.91;87.94;90985.13;4991312;28;20029;-87
2021/09/25 07:54:29;;;;;;;10.00;6.75;;;;;;;13.03;87.18;90973.78;5017145;28;20040;-88
2021/09/25 07:56:54;;;;;;;8.98;6.38;;;;;;;13.17;87.59;90981.19;5016331;28;20026;-88
2021/09/25 07:59:20;;;;;;;9.85;5.93;;;;;;;13.32;87.29;90987.50;5016925;28;20032;-88
2021/09/25 08:01:46;;;;;;;11.98;5.80;;;;;;;13.48;85.51;90979.63;5000825;28;20449;-89
2021/09/25 08:04:12;;;;;;;8.07;6.32;;;;;;;13.58;85.94;90981.69;4999835;28;20026;-86
2021/09/25 08:06:37;;;;;;;8.27;5.80;;;;;;;13.72;88.42;90987.19;5016540;28;20022;-88
2021/09/25 08:09:02;;;;;;;8.88;5.93;;;;;;;13.82;86.26;90993.75;5018223;28;20399;-88
2021/09/25 08:11:28;;;;;;;8.07;5.60;;;;;;;14.07;83.86;90994.22;4997612;28;20026;-88
2021/09/25 08:13:53;;;;;;;9.15;5.25;;;;;;;14.17;83.76;90992.88;4981138;28;20399;-89
2021/09/25 08:16:19;;;;;;;8.38;5.57;;;;;;;14.15;81.30;90982.75;4997173;28;20531;-87
2021/09/25 08:18:44;;;;;;;12.70;5.70;;;;;;;14.30;86.21;90992.38;5015270;28;20505;-86
2021/09/25 08:21:09;;;;;;;7.68;4.50;;;;;;;14.48;80.03;90986.69;5015588;28;20022;-86
2021/09/25 08:23:35;;;;;;;6.22;4.72;;;;;;;14.66;76.18;90982.50;5032039;28;20075;-85
2021/09/25 08:26:00;;;;;;;9.98;5.30;;;;;;;14.73;79.76;90987.88;5048378;28;20657;-86
2021/09/25 08:28:26;;;;;;;6.82;4.32;;;;;;;14.75;76.18;90987.53;5048785;28;20036;-86
2021/09/25 08:30:52;;;;;;;6.05;4.40;;;;;;;14.88;76.94;90995.97;5031874;28;20026;-88
2021/09/25 08:33:17;;;;;;;6.70;4.13;;;;;;;15.11;77.24;90993.31;5016355;28;20029;-89
2021/09/25 08:35:43;;;;;;;6.88;4.80;;;;;;;15.20;81.37;90999.06;5014823;28;20025;-86
2021/09/25 08:38:08;;;;;;;8.45;4.65;;;;;;;15.23;81.52;90993.88;5015301;28;20025;-86
2021/09/25 08:40:33;;;;;;;7.35;5.00;;;;;;;15.36;74.61;90991.03;5032260;28;20029;-85
2021/09/25 08:42:59;;;;;;;7.68;4.95;;;;;;;15.50;75.67;90991.97;5015448;28;20052;-86
2021/09/25 08:45:24;;;;;;;5.97;3.97;;;;;;;15.57;72.50;90990.56;4998603;28;20025;-87
2021/09/25 08:47:50;;;;;;;7.05;4.20;;;;;;;15.73;73.41;90981.41;5032221;28;20025;-87
2021/09/25 08:50:16;;;;;;;6.15;4.50;;;;;;;15.96;76.47;90981.28;5031825;28;20025;-87
2021/09/25 08:52:41;;;;;;;5.88;3.70;;;;;;;16.05;72.72;90981.03;5031857;28;20053;-87
2021/09/25 08:55:08;;;;;;;7.65;4.13;;;;;;;16.20;74.70;90982.69;5015372;28;20130;-86
2021/09/25 08:57:33;;;;;;;6.10;4.40;;;;;;;16.32;73.08;90991.41;5031998;28;20490;-87
2021/09/25 09:00:46;;;;;;;6.22;3.70;;;;;;;16.53;68.76;90986.38;5031624;28;20080;-87
2021/09/25 09:03:30;;;;;;;5.43;4.07;;;;;;;16.71;68.79;90987.28;5024477;23;20145;-88
2021/09/25 09:06:12;;;;;;;7.63;3.78;;;;;;;16.79;70.82;90987.38;5062252;28;20021;-87
2021/09/25 09:08:39;;;;;;;6.05;3.90;;;;;;;16.90;70.74;90993.50;5054256;28;20090;-86
2021/09/25 09:11:06;;;;;;;5.35;3.92;;;;;;;17.05;68.08;90989.81;5018328;28;20021;-90
2021/09/25 09:13:31;;;;;;;4.95;3.70;;;;;;;17.16;65.68;90985.38;5049705;28;20021;-86
2021/09/25 09:16:00;;;;;;;5.80;3.80;;;;;;;17.26;67.34;90980.56;4999398;28;20033;-87
2021/09/25 09:18:25;;;;;;;6.60;3.92;;;;;;;17.51;68.36;90984.09;5015790;28;20034;-86
2021/09/25 09:21:10;;;;;;;5.13;3.42;;;;;;;17.51;62.08;90983.34;5017116;28;20024;-87
2021/09/25 09:23:38;;;;;;;5.82;3.60;;;;;;;17.59;68.58;90980.38;5051885;28;20028;-86
2021/09/25 09:26:04;;;;;;;5.97;4.05;;;;;;;17.69;68.86;90986.81;5035153;28;20036;-87
2021/09/25 09:28:30;;;;;;;8.40;3.65;;;;;;;17.89;68.79;90982.06;5018922;28;20021;-88
2021/09/25 09:30:57;;;;;;;5.55;3.60;;;;;;;17.94;67.00;90981.69;5001944;28;20025;-87
2021/09/25 09:33:30;;;;;;;6.55;4.00;;;;;;;18.03;67.17;90982.09;5033632;28;20080;-85
2021/09/25 09:36:11;;;;;;;5.75;3.70;;;;;;;18.09;63.91;90990.41;5023177;28;20033;-86
2021/09/25 09:38:55;;;;;;;6.15;3.92;;;;;;;18.29;63.45;90988.97;5052581;28;20028;-86
2021/09/25 09:41:24;;;;;;;5.40;4.03;;;;;;;18.30;62.18;90984.44;5021051;28;20045;-86
2021/09/25 09:43:50;;;;;;;6.38;4.00;;;;;;;18.30;61.82;90981.78;5018828;28;20146;-86
2021/09/25 09:46:15;;;;;;;4.80;3.65;;;;;;;18.38;62.45;90981.47;5017655;28;20501;-88
2021/09/25 09:48:42;;;;;;;10.32;4.13;;;;;;;18.49;63.04;90980.72;5017502;28;20079;-87
2021/09/25 09:51:08;;;;;;;5.10;3.58;;;;;;;18.66;60.67;90985.28;5001093;28;20024;-87
2021/09/25 09:53:44;;;;;;;7.45;3.63;;;;;;;18.63;61.48;90984.13;5000556;28;20030;-89
2021/09/25 09:56:20;;;;;;;5.50;3.50;;;;;;;18.68;60.89;90988.28;5002750;28;20032;-87
2021/09/25 09:58:55;;;;;;;5.38;3.70;;;;;;;18.82;60.96;90982.28;5030733;28;20025;-88
2021/09/25 10:01:21;;;;;;;5.18;3.50;;;;;;;18.82;60.44;90977.00;5017044;28;21854;-88
2021/09/25 10:03:46;;;;;;;5.32;3.25;;;;;;;18.83;58.96;90970.59;5017261;28;20043;-87
2021/09/25 10:06:11;;;;;;;5.65;3.90;;;;;;;18.92;59.98;90964.94;5016677;28;20025;-88
2021/09/25 10:08:37;;;;;;;9.07;5.20;;;;;;;19.11;63.89;90960.00;5013861;28;20076;-87
2021/09/25 10:11:02;;;;;;;6.85;4.45;;;;;;;19.25;62.48;90974.34;5032630;28;20028;-87
2021/09/25 10:13:28;;;;;;;5.38;4.00;;;;;;;19.38;61.30;90975.47;5034343;28;20026;-87
2021/09/25 10:15:53;;;;;;;6.93;3.88;;;;;;;19.32;58.39;90969.06;5021033;28;20017;-88
2021/09/25 10:18:19;;;;;;;9.10;4.00;;;;;;;19.45;59.56;90975.47;5006793;28;20371;-87
2021/09/25 10:20:44;;;;;;;5.07;3.72;;;;;;;19.51;58.60;90978.47;5037967;28;20028;-88
2021/09/25 10:23:10;;;;;;;9.10;4.15;;;;;;;19.53;61.67;90966.38;5021264;28;20028;-89
2021/09/25 10:25:35;;;;;;;5.80;3.80;;;;;;;19.63;57.20;90969.41;5054221;28;20025;-89
2021/09/25 10:28:01;;;;;;;7.78;4.10;;;;;;;19.81;56.11;90970.09;5035516;28;20045;-90
2021/09/25 10:30:35;;;;;;;13.05;4.82;;;;;;;19.86;59.49;90959.16;5017729;28;20518;-88
2021/09/25 10:33:12;;;;;;;12.25;5.25;;;;;;;20.06;61.25;90964.72;5036416;28;20108;-88
2021/09/25 10:35:38;;;;;;;7.72;4.10;;;;;;;20.10;58.77;90973.38;5037396;28;20078;-88
2021/09/25 10:38:03;;;;;;;7.32;4.00;;;;;;;20.08;57.91;90959.06;5054166;28;20021;-88
2021/09/25 10:40:30;;;;;;;5.53;3.47;;;;;;;20.04;59.03;90957.19;5020467;28;20502;-87
2021/09/25 10:43:18;;;;;;;7.10;4.15;;;;;;;20.09;60.55;90966.59;5020434;28;20039;-87
2021/09/25 10:45:44;;;;;;;6.95;4.28;;;;;;;20.10;56.93;90954.88;5036579;28;20017;-88
2021/09/25 10:48:12;;;;;;;9.18;4.30;;;;;;;19.99;58.04;90954.91;5020502;28;20029;-88
2021/09/25 10:50:49;;;;;;;7.93;4.20;;;;;;;20.03;56.19;90952.25;5004131;28;20025;-89
2021/09/25 10:53:15;;;;;;;6.30;4.35;;;;;;;19.99;57.75;90960.19;5020908;28;20091;-87
2021/09/25 10:55:43;;;;;;;7.50;4.40;;;;;;;20.03;57.06;90955.66;5019856;28;20060;-87
2021/09/25 10:58:20;;;;;;;7.03;4.55;;;;;;;20.04;59.09;90957.19;5036751;28;20087;-87
2021/09/25 11:00:52;;;;;;;7.80;4.38;;;;;;;19.88;57.29;90956.84;5054338;28;20060;-88
2021/09/25 11:03:39;;;;;;;6.22;4.20;;;;;;;20.02;56.82;90970.03;5020336;28;20083;-87
2021/09/25 11:06:05;;;;;;;7.93;3.97;;;;;;;20.21;57.88;90960.09;5054226;28;20024;-88
2021/09/25 11:08:31;;;;;;;5.57;4.38;;;;;;;20.20;56.67;90961.25;5036480;28;20025;-88
2021/09/25 11:11:05;;;;;;;6.68;4.85;;;;;;;20.09;59.00;90963.19;5059439;28;20024;-90
2021/09/25 11:14:05;;;;;;;6.13;4.30;;;;;;;20.08;58.10;90959.06;5057917;28;20025;-87
2021/09/25 11:16:46;;;;;;;5.70;3.90;;;;;;;20.05;57.99;90965.84;5036361;28;20044;-87
2021/09/25 11:19:21;;;;;;;5.90;4.15;;;;;;;20.13;57.69;90969.97;5036135;28;20045;-87
2021/09/25 11:22:05;;;;;;;7.47;4.20;;;;;;;20.09;59.06;90957.91;5034755;28;20029;-88
2021/09/25 11:24:32;;;;;;;4.82;3.92;;;;;;;20.18;59.50;90955.63;5053632;28;20036;-88
2021/09/25 11:26:58;;;;;;;5.63;4.53;;;;;;;20.15;58.98;90953.72;5052504;28;20017;-87
2021/09/25 11:29:23;;;;;;;8.20;4.18;;;;;;;20.10;58.77;90951.47;5035876;28;20027;-88
2021/09/25 11:31:49;;;;;;;10.20;3.75;;;;;;;20.10;59.33;90964.69;5035825;28;20470;-87
2021/09/25 11:34:27;;;;;;;5.65;4.00;;;;;;;20.17;60.25;90962.03;5035802;28;20497;-87